Mulga, Alabama
Current Conditions -  °F | °C
As of 3:53 PM on Monday 24 Nov 2014 (Local Time) from KBHM Reporting Station
Scattered Clouds Scattered Clouds  
Wind Chill: 62°   Ceiling: Unl
Heat Index: 62°   Visibility: 10mi
Dew Point: 44°   Wind: 13mph
Humidity: 52%   Direction: 280°W
Pressure: 29.91"   Gusts: NA
Location:  33.55°N, 86.97°W
Report Text: KBHM 242153Z 28011KT 10SM SCT250 17/07 A2991 RMK AO2 SLP124 T01670067
Loading
Personal Weather Stations






























Interactive Weather Map New forecast layout! Learn more

10-Day Weather Forecast

Advertisements
Track Severe Weather on mobile